createdAt,value
2019-03-28T00:02:10.359Z,18.62
2019-03-28T00:04:38.870Z,18.17
2019-03-28T00:07:07.444Z,19.20
2019-03-28T00:09:36.407Z,17.65
2019-03-28T00:12:04.551Z,18.02
2019-03-28T00:14:33.255Z,18.02
2019-03-28T00:17:03.803Z,18.32
2019-03-28T00:19:31.805Z,16.95
2019-03-28T00:22:01.078Z,18.07
2019-03-28T00:24:34.181Z,18.10
2019-03-28T00:27:02.186Z,17.67
2019-03-28T00:29:30.793Z,17.00
2019-03-28T00:31:58.818Z,16.57
2019-03-28T00:34:27.434Z,15.58
2019-03-28T00:36:56.534Z,15.55
2019-03-28T00:39:24.513Z,15.38
2019-03-28T00:41:52.479Z,15.35
2019-03-28T00:44:20.273Z,16.25
2019-03-28T00:46:49.321Z,14.47
2019-03-28T00:49:18.265Z,15.65
2019-03-28T00:51:47.185Z,15.68
2019-03-28T00:54:15.288Z,16.73
2019-03-28T00:56:47.354Z,15.68
2019-03-28T01:01:41.210Z,15.48
2019-03-28T01:04:09.683Z,16.45
2019-03-28T01:06:37.800Z,16.62
2019-03-28T01:09:08.649Z,16.15
2019-03-28T01:11:37.155Z,16.35
2019-03-28T01:14:06.364Z,16.00
2019-03-28T01:16:34.428Z,16.65
2019-03-28T01:19:02.978Z,16.87
2019-03-28T01:21:31.413Z,15.93
2019-03-28T01:24:00.320Z,15.68
2019-03-28T01:26:28.536Z,14.95
2019-03-28T01:28:56.295Z,17.48
2019-03-28T01:31:25.101Z,17.95
2019-03-28T01:33:53.754Z,17.20
2019-03-28T01:36:21.809Z,17.52
2019-03-28T01:38:50.507Z,18.62
2019-03-28T01:41:18.516Z,18.27
2019-03-28T01:43:47.045Z,18.07
2019-03-28T01:46:15.878Z,17.57
2019-03-28T01:48:44.257Z,17.62
2019-03-28T01:51:12.612Z,18.23
2019-03-28T01:53:40.954Z,18.48
2019-03-28T01:56:09.118Z,17.52
2019-03-28T01:58:37.247Z,17.95
2019-03-28T02:01:05.271Z,18.00
2019-03-28T02:03:33.074Z,17.48
2019-03-28T02:06:01.025Z,17.37
2019-03-28T02:08:29.887Z,17.40
2019-03-28T02:10:58.099Z,18.07
2019-03-28T02:13:27.134Z,16.85
2019-03-28T02:15:55.560Z,18.45
2019-03-28T02:18:24.372Z,18.27
2019-03-28T02:20:52.747Z,18.65
2019-03-28T02:23:21.108Z,17.35
2019-03-28T02:25:49.170Z,18.15
2019-03-28T02:28:17.926Z,19.48
2019-03-28T02:30:46.999Z,18.65
2019-03-28T02:33:14.890Z,20.08
2019-03-28T02:35:44.131Z,18.48
2019-03-28T02:38:12.685Z,19.32
2019-03-28T02:40:42.703Z,19.35
2019-03-28T02:43:11.092Z,19.75
2019-03-28T02:45:40.861Z,19.75
2019-03-28T02:48:08.838Z,21.70
2019-03-28T02:50:37.841Z,20.35
2019-03-28T02:53:07.077Z,19.98
2019-03-28T02:55:36.400Z,19.30
2019-03-28T02:58:05.743Z,19.98
2019-03-28T03:00:35.038Z,17.20
2019-03-28T03:03:03.858Z,16.62
2019-03-28T03:05:33.454Z,16.27
2019-03-28T03:08:02.356Z,17.27
2019-03-28T03:10:30.974Z,17.15
2019-03-28T03:13:00.869Z,15.88
2019-03-28T03:15:30.327Z,16.17
2019-03-28T03:17:58.528Z,15.63
2019-03-28T03:20:28.015Z,17.10
2019-03-28T03:22:56.063Z,16.45
2019-03-28T03:25:24.532Z,16.57
2019-03-28T03:27:58.593Z,16.73
2019-03-28T03:30:23.838Z,16.52
2019-03-28T03:32:51.972Z,18.60
2019-03-28T03:35:19.814Z,17.73
2019-03-28T03:37:48.109Z,16.55
2019-03-28T03:40:17.306Z,17.05
2019-03-28T03:42:47.539Z,16.90
2019-03-28T03:45:15.784Z,17.07
2019-03-28T03:47:45.784Z,17.90
2019-03-28T03:50:35.761Z,17.82
2019-03-28T03:53:04.034Z,17.12
2019-03-28T03:55:32.745Z,17.67
2019-03-28T03:58:14.331Z,16.82
2019-03-28T04:00:32.359Z,17.12
2019-03-28T04:03:00.954Z,20.60
2019-03-28T04:05:30.082Z,20.15
2019-03-28T04:08:00.285Z,19.57
2019-03-28T04:10:28.757Z,21.25
2019-03-28T04:12:57.551Z,21.48
2019-03-28T04:15:25.377Z,20.60
2019-03-28T04:17:53.635Z,21.82
2019-03-28T04:20:21.621Z,20.97
2019-03-28T04:22:57.153Z,19.77
2019-03-28T04:25:25.275Z,20.57
2019-03-28T04:27:53.676Z,20.23
2019-03-28T04:30:23.269Z,19.23
2019-03-28T04:32:51.148Z,19.60
2019-03-28T04:35:19.849Z,20.35
2019-03-28T04:37:48.088Z,18.60
2019-03-28T04:40:16.596Z,17.35
2019-03-28T04:42:46.016Z,19.25
2019-03-28T04:45:14.634Z,18.62
2019-03-28T04:47:43.383Z,17.12
2019-03-28T04:50:11.593Z,19.25
2019-03-28T04:52:39.702Z,19.20
2019-03-28T04:55:08.896Z,20.27
2019-03-28T04:57:37.003Z,18.65
2019-03-28T05:00:07.348Z,20.82
2019-03-28T05:02:36.777Z,18.73
2019-03-28T05:05:04.819Z,19.48
2019-03-28T05:07:33.854Z,19.70
2019-03-28T05:10:01.603Z,17.30
2019-03-28T05:12:29.964Z,18.27
2019-03-28T05:14:57.852Z,18.57
2019-03-28T05:17:26.199Z,19.65
2019-03-28T05:19:54.957Z,19.52
2019-03-28T05:22:23.057Z,18.70
2019-03-28T05:24:50.828Z,18.65
2019-03-28T05:27:18.773Z,18.05
2019-03-28T05:29:48.116Z,19.30
2019-03-28T05:32:18.781Z,18.90
2019-03-28T05:34:47.192Z,19.52
2019-03-28T05:37:15.179Z,20.52
2019-03-28T05:39:43.075Z,19.80
2019-03-28T05:42:11.230Z,18.85
2019-03-28T05:44:39.760Z,18.23
2019-03-28T05:47:08.208Z,19.48
2019-03-28T05:49:36.736Z,18.10
2019-03-28T05:52:04.871Z,17.37
2019-03-28T05:54:33.012Z,17.85
2019-03-28T05:57:01.253Z,17.25
2019-03-28T05:59:30.373Z,16.62
2019-03-28T06:01:58.508Z,19.30
2019-03-28T06:04:26.588Z,18.02
2019-03-28T06:06:55.515Z,19.57
2019-03-28T06:09:23.840Z,20.55
2019-03-28T06:11:53.044Z,21.05
2019-03-28T06:14:21.346Z,21.12
2019-03-28T06:16:50.014Z,19.87
2019-03-28T06:19:18.128Z,22.10
2019-03-28T06:21:46.229Z,21.48
2019-03-28T06:24:14.486Z,22.73
2019-03-28T06:26:43.359Z,22.35
2019-03-28T06:29:23.137Z,21.87
2019-03-28T06:31:54.311Z,21.80
2019-03-28T06:34:11.851Z,21.70
2019-03-28T06:36:40.625Z,22.90
2019-03-28T06:39:10.864Z,21.37
2019-03-28T06:41:39.702Z,23.00
2019-03-28T06:44:07.940Z,22.25
2019-03-28T06:46:36.452Z,21.40
2019-03-28T06:49:04.566Z,21.87
2019-03-28T06:51:32.798Z,22.00
2019-03-28T06:54:01.003Z,22.00
2019-03-28T06:56:29.635Z,22.82
2019-03-28T06:58:58.016Z,22.00
2019-03-28T07:01:26.169Z,22.30
2019-03-28T07:03:53.954Z,22.65
2019-03-28T07:06:23.035Z,23.62
2019-03-28T07:08:51.660Z,22.87
2019-03-28T07:11:19.624Z,22.87
2019-03-28T07:13:47.688Z,23.20
2019-03-28T07:16:16.840Z,23.47
2019-03-28T07:18:44.789Z,23.02
2019-03-28T07:21:14.270Z,22.52
2019-03-28T07:23:42.351Z,23.92
2019-03-28T07:26:10.479Z,24.00
2019-03-28T07:28:39.390Z,23.87
2019-03-28T07:31:08.256Z,23.47
2019-03-28T07:33:36.882Z,25.85
2019-03-28T07:36:05.084Z,24.75
2019-03-28T07:38:33.351Z,26.95
2019-03-28T07:41:01.451Z,29.52
2019-03-28T07:43:29.528Z,29.15
2019-03-28T07:45:57.793Z,28.30
2019-03-28T07:48:25.776Z,30.25
2019-03-28T07:50:53.997Z,31.70
2019-03-28T07:53:22.307Z,31.00
2019-03-28T07:55:50.339Z,29.80
2019-03-28T07:58:18.423Z,32.75
2019-03-28T08:00:46.794Z,28.87
2019-03-28T08:03:14.801Z,32.35
2019-03-28T08:05:43.016Z,33.55
2019-03-28T08:08:11.234Z,32.63
2019-03-28T08:10:39.192Z,30.55
2019-03-28T08:13:09.557Z,29.37
2019-03-28T08:15:37.873Z,28.90
2019-03-28T08:18:05.975Z,29.27
2019-03-28T08:20:34.134Z,29.20
2019-03-28T08:23:01.965Z,26.30
2019-03-28T08:25:31.505Z,26.15
2019-03-28T08:27:59.852Z,28.52
2019-03-28T08:30:34.568Z,28.38
2019-03-28T08:33:04.908Z,26.82
2019-03-28T08:35:36.327Z,28.45
2019-03-28T08:38:04.692Z,25.60
2019-03-28T08:40:34.682Z,25.52
2019-03-28T08:43:03.314Z,24.82
2019-03-28T08:45:31.495Z,26.65
2019-03-28T08:47:59.624Z,24.18
2019-03-28T08:50:27.781Z,24.35
2019-03-28T08:52:56.899Z,21.10
2019-03-28T08:55:25.692Z,18.40
2019-03-28T08:57:54.273Z,18.87
2019-03-28T09:00:32.887Z,15.75
2019-03-28T09:02:54.917Z,15.53
2019-03-28T09:05:23.393Z,16.93
2019-03-28T09:07:53.242Z,15.03
2019-03-28T09:10:21.453Z,13.10
2019-03-28T09:12:49.560Z,17.02
2019-03-28T09:15:18.129Z,14.58
2019-03-28T09:17:46.459Z,17.00
2019-03-28T09:20:14.470Z,14.87
2019-03-28T09:22:42.354Z,14.73
2019-03-28T09:25:12.502Z,15.45
2019-03-28T09:27:40.748Z,15.13
2019-03-28T09:30:09.639Z,15.30
2019-03-28T09:32:38.080Z,14.68
2019-03-28T09:35:09.378Z,10.75
2019-03-28T09:37:37.296Z,9.35
2019-03-28T09:40:06.195Z,12.43
2019-03-28T09:42:34.181Z,13.20
2019-03-28T09:45:03.112Z,13.53
2019-03-28T09:47:31.682Z,14.05
2019-03-28T09:50:00.421Z,12.28
2019-03-28T09:52:28.683Z,13.08
2019-03-28T09:54:58.942Z,13.65
2019-03-28T09:57:27.453Z,13.45
2019-03-28T09:59:55.550Z,12.75
2019-03-28T10:02:24.112Z,11.22
2019-03-28T10:04:52.265Z,10.60
2019-03-28T10:07:20.554Z,10.13
2019-03-28T10:09:50.285Z,12.75
2019-03-28T10:12:19.600Z,12.17
2019-03-28T10:14:47.835Z,12.82
2019-03-28T10:17:15.884Z,11.08
2019-03-28T10:19:44.292Z,10.28
2019-03-28T10:22:12.508Z,12.13
2019-03-28T10:24:41.017Z,12.30
2019-03-28T10:27:09.168Z,11.48
2019-03-28T10:29:37.296Z,12.20
2019-03-28T10:32:06.469Z,11.80
2019-03-28T10:34:35.509Z,10.70
2019-03-28T10:37:04.108Z,10.72
2019-03-28T10:39:34.342Z,11.10
2019-03-28T10:42:02.104Z,12.25
2019-03-28T10:44:30.941Z,11.15
2019-03-28T10:46:59.666Z,11.73
2019-03-28T10:49:27.778Z,10.95
2019-03-28T10:51:56.588Z,12.35
2019-03-28T10:54:25.898Z,11.93
2019-03-28T10:56:57.517Z,12.60
2019-03-28T10:59:27.520Z,12.40
2019-03-28T11:01:55.852Z,12.43
2019-03-28T11:04:24.374Z,12.78
2019-03-28T11:06:53.039Z,10.98
2019-03-28T11:09:21.441Z,11.83
2019-03-28T11:11:49.283Z,11.20
2019-03-28T11:14:17.756Z,12.33
2019-03-28T11:16:48.211Z,12.43
2019-03-28T11:19:16.871Z,11.53
2019-03-28T11:21:46.765Z,11.93
2019-03-28T11:24:14.879Z,11.80
2019-03-28T11:26:42.970Z,11.80
2019-03-28T11:29:11.575Z,11.25
2019-03-28T11:31:46.875Z,10.43
2019-03-28T11:34:12.797Z,10.68
2019-03-28T11:36:41.445Z,9.28
2019-03-28T11:39:10.056Z,10.98
2019-03-28T11:41:38.349Z,10.58
2019-03-28T11:44:06.127Z,11.35
2019-03-28T11:46:34.488Z,10.68
2019-03-28T11:49:02.531Z,10.20
2019-03-28T11:51:31.255Z,9.60
2019-03-28T11:53:59.715Z,7.42
2019-03-28T11:56:27.921Z,7.35
2019-03-28T11:58:56.284Z,8.08
2019-03-28T12:01:24.350Z,8.28
2019-03-28T12:03:52.940Z,7.75
2019-03-28T12:06:21.124Z,8.25
2019-03-28T12:08:49.153Z,9.03
2019-03-28T12:11:18.231Z,9.05
2019-03-28T12:13:46.312Z,8.80
2019-03-28T12:16:14.841Z,6.70
2019-03-28T12:18:43.511Z,7.53
2019-03-28T12:21:11.796Z,7.25
2019-03-28T12:23:40.252Z,6.80
2019-03-28T12:26:08.232Z,7.40
2019-03-28T12:28:37.367Z,7.28
2019-03-28T12:31:06.465Z,7.47
2019-03-28T12:33:34.787Z,8.10
2019-03-28T12:36:03.902Z,7.40
2019-03-28T12:38:31.671Z,9.13
2019-03-28T12:41:00.602Z,8.38
2019-03-28T12:43:29.215Z,8.30
2019-03-28T12:46:00.993Z,6.08
2019-03-28T12:48:29.160Z,5.00
2019-03-28T12:50:59.019Z,7.15
2019-03-28T12:53:28.401Z,5.00
2019-03-28T12:55:57.223Z,6.53
2019-03-28T12:58:25.018Z,7.60
2019-03-28T13:00:53.035Z,7.25
2019-03-28T13:03:21.557Z,7.53
2019-03-28T13:05:51.343Z,8.08
2019-03-28T13:08:19.772Z,7.93
2019-03-28T13:10:48.263Z,6.95
2019-03-28T13:13:17.584Z,6.87
2019-03-28T13:15:45.719Z,6.90
2019-03-28T13:18:14.391Z,6.22
2019-03-28T13:20:42.999Z,6.60
2019-03-28T13:23:11.049Z,7.47
2019-03-28T13:25:39.471Z,8.10
2019-03-28T13:28:07.575Z,6.75
2019-03-28T13:30:36.282Z,7.45
2019-03-28T13:33:04.187Z,6.92
2019-03-28T13:35:35.138Z,6.05
2019-03-28T13:38:04.462Z,5.70
2019-03-28T13:40:32.212Z,6.78
2019-03-28T13:43:01.195Z,6.42
2019-03-28T13:45:29.442Z,6.30
2019-03-28T13:47:57.248Z,6.28
2019-03-28T13:50:25.267Z,5.72
2019-03-28T13:52:54.271Z,6.95
2019-03-28T13:55:22.846Z,7.35
2019-03-28T13:57:52.347Z,6.35
2019-03-28T14:00:31.893Z,6.12
2019-03-28T14:03:01.654Z,6.80
2019-03-28T14:05:29.880Z,6.93
2019-03-28T14:07:58.266Z,6.30
2019-03-28T14:10:26.312Z,6.30
2019-03-28T14:12:54.745Z,6.03
2019-03-28T14:15:22.789Z,6.58
2019-03-28T14:17:50.970Z,6.05
2019-03-28T14:20:22.198Z,7.25
2019-03-28T14:22:49.253Z,7.03
2019-03-28T14:25:17.823Z,7.42
2019-03-28T14:27:45.834Z,7.92
2019-03-28T14:30:14.420Z,7.65
2019-03-28T14:32:53.283Z,6.83
2019-03-28T14:35:13.083Z,7.05
2019-03-28T14:37:41.304Z,7.85
2019-03-28T14:40:10.026Z,7.22
2019-03-28T14:42:38.119Z,6.42
2019-03-28T14:45:08.381Z,6.33
2019-03-28T14:47:37.792Z,6.67
2019-03-28T14:50:07.243Z,7.03
2019-03-28T14:52:35.295Z,7.95
2019-03-28T14:55:04.419Z,7.78
2019-03-28T14:57:32.558Z,7.97
2019-03-28T15:00:02.898Z,7.10
2019-03-28T15:02:31.269Z,7.70
2019-03-28T15:05:00.042Z,7.42
2019-03-28T15:07:28.252Z,7.60
2019-03-28T15:09:56.021Z,7.10
2019-03-28T15:12:25.125Z,7.83
2019-03-28T15:14:54.203Z,8.00
2019-03-28T15:17:22.679Z,7.42
2019-03-28T15:19:53.572Z,8.00
2019-03-28T15:22:25.085Z,7.97
2019-03-28T15:24:53.972Z,7.95
2019-03-28T15:27:23.203Z,7.97
2019-03-28T15:29:50.998Z,8.00
2019-03-28T15:32:19.723Z,7.70
2019-03-28T15:34:48.289Z,7.72
2019-03-28T15:37:17.010Z,7.22
2019-03-28T15:39:45.950Z,7.25
2019-03-28T15:42:14.277Z,7.12
2019-03-28T15:44:42.295Z,7.67
2019-03-28T15:47:10.646Z,7.47
2019-03-28T15:49:38.329Z,6.75
2019-03-28T15:52:06.843Z,7.05
2019-03-28T15:54:35.995Z,6.70
2019-03-28T15:57:04.619Z,7.03
2019-03-28T15:59:34.691Z,7.10
2019-03-28T16:02:03.585Z,7.28
2019-03-28T16:04:32.325Z,6.92
2019-03-28T16:07:02.020Z,5.72
2019-03-28T16:09:30.582Z,6.90
2019-03-28T16:12:02.731Z,6.75
2019-03-28T16:14:29.080Z,6.85
2019-03-28T16:16:57.179Z,6.12
2019-03-28T16:19:25.304Z,6.03
2019-03-28T16:21:54.247Z,5.87
2019-03-28T16:24:24.693Z,6.10
2019-03-28T16:26:55.142Z,5.20
2019-03-28T16:29:24.846Z,5.95
2019-03-28T16:31:53.236Z,6.47
2019-03-28T16:34:21.428Z,5.67
2019-03-28T16:36:50.739Z,5.53
2019-03-28T16:39:19.066Z,4.72
2019-03-28T16:41:49.109Z,5.75
2019-03-28T16:44:18.375Z,5.50
2019-03-28T16:46:46.387Z,5.83
2019-03-28T16:49:14.487Z,6.10
2019-03-28T16:51:43.643Z,5.20
2019-03-28T16:54:12.215Z,5.67
2019-03-28T16:56:40.541Z,5.65
2019-03-28T16:59:09.215Z,5.72
2019-03-28T17:01:37.448Z,5.17
2019-03-28T17:04:20.088Z,4.67
2019-03-28T17:06:38.039Z,4.92
2019-03-28T17:09:07.186Z,5.12
2019-03-28T17:11:35.694Z,3.90
2019-03-28T17:14:03.750Z,4.47
2019-03-28T17:16:31.764Z,3.83
2019-03-28T17:19:00.196Z,4.12
2019-03-28T17:21:28.801Z,3.05
2019-03-28T17:23:56.923Z,2.80
2019-03-28T17:26:25.091Z,2.33
2019-03-28T17:28:53.317Z,1.62
2019-03-28T17:31:22.273Z,2.30
2019-03-28T17:33:50.608Z,1.98
2019-03-28T17:36:19.107Z,2.52
2019-03-28T17:38:48.487Z,2.35
2019-03-28T17:41:17.693Z,2.83
2019-03-28T17:43:46.325Z,2.92
2019-03-28T17:46:16.006Z,2.25
2019-03-28T17:48:44.357Z,2.27
2019-03-28T17:51:13.052Z,2.60
2019-03-28T17:53:41.587Z,2.72
2019-03-28T17:56:12.873Z,2.70
2019-03-28T17:58:45.355Z,2.52
2019-03-28T18:01:16.540Z,2.75
2019-03-28T18:03:46.988Z,2.60
2019-03-28T18:06:17.357Z,2.70
2019-03-28T18:08:47.938Z,2.33
2019-03-28T18:11:17.723Z,2.52
2019-03-28T18:13:46.375Z,2.60
2019-03-28T18:16:15.208Z,2.52
2019-03-28T18:18:47.545Z,3.00
2019-03-28T18:21:15.587Z,2.85
2019-03-28T18:23:43.535Z,3.25
2019-03-28T18:26:12.364Z,3.58
2019-03-28T18:28:40.583Z,3.27
2019-03-28T18:31:09.337Z,3.92
2019-03-28T18:33:37.407Z,3.72
2019-03-28T18:36:05.956Z,4.00
2019-03-28T18:38:34.464Z,3.22
2019-03-28T18:41:03.125Z,4.22
2019-03-28T18:43:31.654Z,3.92
2019-03-28T18:46:01.113Z,4.30
2019-03-28T18:48:35.901Z,4.75
2019-03-28T18:51:01.002Z,5.50
2019-03-28T18:53:29.262Z,6.30
2019-03-28T18:55:57.795Z,5.15
2019-03-28T18:58:25.907Z,5.92
2019-03-28T19:00:54.386Z,6.28
2019-03-28T19:03:23.130Z,6.60
2019-03-28T19:05:52.170Z,5.87
2019-03-28T19:08:20.420Z,5.60
2019-03-28T19:10:51.050Z,6.10
2019-03-28T19:15:46.613Z,6.37
2019-03-28T19:18:15.270Z,5.58
2019-03-28T19:20:44.891Z,5.75
2019-03-28T19:23:13.906Z,6.08
2019-03-28T19:25:59.252Z,6.05
2019-03-28T19:28:29.611Z,5.85
2019-03-28T19:30:58.982Z,5.78
2019-03-28T19:33:26.942Z,5.50
2019-03-28T19:35:54.950Z,6.35
2019-03-28T19:38:23.400Z,5.10
2019-03-28T19:40:52.876Z,6.28
2019-03-28T19:43:22.949Z,6.00
2019-03-28T19:45:52.508Z,6.37
2019-03-28T19:48:20.993Z,6.67
2019-03-28T19:50:58.481Z,6.28
2019-03-28T19:53:26.544Z,5.58
2019-03-28T19:55:55.580Z,6.00
2019-03-28T19:58:23.904Z,6.70
2019-03-28T20:00:52.419Z,6.25
2019-03-28T20:03:23.261Z,6.67
2019-03-28T20:05:50.823Z,7.45
2019-03-28T20:08:18.873Z,7.45
2019-03-28T20:10:47.466Z,7.28
2019-03-28T20:13:17.828Z,7.08
2019-03-28T20:15:45.588Z,7.00
2019-03-28T20:18:13.494Z,7.47
2019-03-28T20:20:43.467Z,7.40
2019-03-28T20:23:12.635Z,6.83
2019-03-28T20:25:43.272Z,7.03
2019-03-28T20:28:14.265Z,7.22
2019-03-28T20:30:45.129Z,7.00
2019-03-28T20:33:14.210Z,7.83
2019-03-28T20:35:42.607Z,8.10
2019-03-28T20:38:10.650Z,7.85
2019-03-28T20:40:38.742Z,7.00
2019-03-28T20:43:08.052Z,7.37
2019-03-28T20:45:36.950Z,7.85
2019-03-28T20:48:06.695Z,7.95
2019-03-28T20:50:34.803Z,6.92
2019-03-28T20:53:03.324Z,8.88
2019-03-28T20:55:31.575Z,8.50
2019-03-28T20:58:00.316Z,8.10
2019-03-28T21:00:40.777Z,8.40
2019-03-28T21:03:09.514Z,9.20
2019-03-28T21:05:37.948Z,8.45
2019-03-28T21:08:07.492Z,8.18
2019-03-28T21:10:36.369Z,8.75
2019-03-28T21:13:04.667Z,9.13
2019-03-28T21:15:32.840Z,8.70
2019-03-28T21:18:01.085Z,8.80
2019-03-28T21:20:29.282Z,8.38
2019-03-28T21:22:57.781Z,8.60
2019-03-28T21:25:25.508Z,8.33
2019-03-28T21:27:55.167Z,8.63
2019-03-28T21:30:22.921Z,8.85
2019-03-28T21:32:55.629Z,8.68
2019-03-28T21:35:22.649Z,8.55
2019-03-28T21:37:51.581Z,9.88
2019-03-28T21:40:19.667Z,8.83
2019-03-28T21:42:48.086Z,8.43
2019-03-28T21:45:16.026Z,8.40
2019-03-28T21:47:43.787Z,8.85
2019-03-28T21:50:12.071Z,8.93
2019-03-28T21:52:40.302Z,8.75
2019-03-28T21:55:11.640Z,8.40
2019-03-28T22:00:07.256Z,8.83
2019-03-28T22:02:35.995Z,8.73
2019-03-28T22:05:04.315Z,9.23
2019-03-28T22:07:32.343Z,8.80
2019-03-28T22:10:00.645Z,8.78
2019-03-28T22:12:29.980Z,9.73
2019-03-28T22:14:58.746Z,9.38
2019-03-28T22:17:28.185Z,8.48
2019-03-28T22:19:56.458Z,9.30
2019-03-28T22:22:26.444Z,9.53
2019-03-28T22:24:54.228Z,10.23
2019-03-28T22:27:22.798Z,9.65
2019-03-28T22:29:50.916Z,10.50
2019-03-28T22:32:19.092Z,10.40
2019-03-28T22:34:47.464Z,11.43
2019-03-28T22:37:16.900Z,10.95
2019-03-28T22:39:46.311Z,10.18
2019-03-28T22:42:15.104Z,11.18
2019-03-28T22:44:43.099Z,10.58
2019-03-28T22:47:11.464Z,10.98
2019-03-28T22:49:40.461Z,10.35
2019-03-28T22:52:09.340Z,10.40
2019-03-28T22:54:38.332Z,10.98
2019-03-28T22:57:08.779Z,11.12
2019-03-28T22:59:37.091Z,9.93
2019-03-28T23:02:06.447Z,10.65
2019-03-28T23:04:36.295Z,10.65
2019-03-28T23:07:10.734Z,11.00
2019-03-28T23:09:34.598Z,11.33
2019-03-28T23:12:03.642Z,11.63
2019-03-28T23:14:31.671Z,11.55
2019-03-28T23:17:00.667Z,11.33
2019-03-28T23:19:32.277Z,10.85
2019-03-28T23:22:00.171Z,11.18
2019-03-28T23:24:27.919Z,12.20
2019-03-28T23:26:56.061Z,11.95
2019-03-28T23:29:24.617Z,11.35
2019-03-28T23:31:52.494Z,11.80
2019-03-28T23:34:20.732Z,11.70
2019-03-28T23:36:48.823Z,12.35
2019-03-28T23:39:19.234Z,12.33
2019-03-28T23:41:47.927Z,12.50
2019-03-28T23:44:16.366Z,12.47
2019-03-28T23:46:44.239Z,12.68
2019-03-28T23:49:12.339Z,14.00
2019-03-28T23:51:40.542Z,14.07
2019-03-28T23:54:08.311Z,14.05
2019-03-28T23:56:36.985Z,13.70
2019-03-28T23:59:06.502Z,14.20
